createdAt,value
2019-05-10T00:00:00.505Z,17.10
2019-05-10T00:01:00.369Z,18.50
2019-05-10T00:02:00.344Z,16.60
2019-05-10T00:03:00.329Z,18.40
2019-05-10T00:04:00.317Z,17.30
2019-05-10T00:05:00.285Z,19.60
2019-05-10T00:06:00.266Z,20.00
2019-05-10T00:07:00.248Z,20.90
2019-05-10T00:08:00.227Z,16.80
2019-05-10T00:09:00.206Z,19.90
2019-05-10T00:10:00.197Z,22.40
2019-05-10T00:11:00.166Z,20.70
2019-05-10T00:12:00.147Z,16.70
2019-05-10T00:13:00.143Z,17.00
2019-05-10T00:14:00.116Z,19.20
2019-05-10T00:15:00.090Z,18.30
2019-05-10T00:16:00.067Z,19.00
2019-05-10T00:17:00.048Z,19.40
2019-05-10T00:18:00.030Z,18.50
2019-05-10T00:19:00.032Z,22.80
2019-05-10T00:19:59.986Z,22.00
2019-05-10T00:20:59.977Z,22.40
2019-05-10T00:21:59.951Z,22.40
2019-05-10T00:22:59.931Z,20.40
2019-05-10T00:23:59.910Z,18.70
2019-05-10T00:25:04.481Z,18.00
2019-05-10T00:25:59.883Z,19.00
2019-05-10T00:26:59.854Z,20.50
2019-05-10T00:27:59.828Z,21.50
2019-05-10T00:28:59.807Z,19.00
2019-05-10T00:29:59.789Z,19.80
2019-05-10T00:30:59.772Z,19.80
2019-05-10T00:31:59.758Z,18.70
2019-05-10T00:32:59.733Z,20.60
2019-05-10T00:33:59.708Z,18.90
2019-05-10T00:34:59.697Z,18.20
2019-05-10T00:35:59.669Z,20.70
2019-05-10T00:36:59.650Z,20.20
2019-05-10T00:37:59.630Z,22.80
2019-05-10T00:38:59.609Z,23.00
2019-05-10T00:39:59.589Z,17.20
2019-05-10T00:40:59.569Z,20.30
2019-05-10T00:41:59.553Z,19.60
2019-05-10T00:42:59.535Z,17.90
2019-05-10T00:43:59.519Z,16.00
2019-05-10T00:44:59.505Z,20.50
2019-05-10T00:45:59.471Z,19.00
2019-05-10T00:46:59.451Z,20.40
2019-05-10T00:47:59.510Z,18.00
2019-05-10T00:48:59.413Z,16.90
2019-05-10T00:49:59.388Z,18.40
2019-05-10T00:50:59.370Z,21.10
2019-05-10T00:51:59.350Z,18.10
2019-05-10T00:52:59.336Z,21.80
2019-05-10T00:53:59.310Z,16.90
2019-05-10T00:54:59.289Z,22.50
2019-05-10T00:55:59.270Z,16.70
2019-05-10T00:56:59.256Z,18.50
2019-05-10T00:57:59.230Z,21.20
2019-05-10T00:58:59.209Z,16.40
2019-05-10T00:59:59.198Z,17.00
2019-05-10T01:00:59.169Z,16.30
2019-05-10T01:01:59.156Z,15.80
2019-05-10T01:02:59.129Z,17.80
2019-05-10T01:03:59.111Z,19.00
2019-05-10T01:04:59.103Z,19.80
2019-05-10T01:05:59.072Z,17.90
2019-05-10T01:06:59.068Z,13.80
2019-05-10T01:07:59.031Z,14.40
2019-05-10T01:08:59.010Z,16.30
2019-05-10T01:09:58.990Z,16.10
2019-05-10T01:10:58.973Z,17.40
2019-05-10T01:11:58.951Z,16.40
2019-05-10T01:12:58.930Z,21.40
2019-05-10T01:13:58.910Z,14.40
2019-05-10T01:14:58.891Z,16.10
2019-05-10T01:15:58.870Z,15.40
2019-05-10T01:16:58.850Z,15.30
2019-05-10T01:17:58.835Z,16.30
2019-05-10T01:18:58.815Z,16.90
2019-05-10T01:19:58.810Z,15.40
2019-05-10T01:20:58.768Z,13.20
2019-05-10T01:21:58.802Z,15.60
2019-05-10T01:22:58.731Z,15.70
2019-05-10T01:23:58.719Z,13.90
2019-05-10T01:24:58.688Z,13.60
2019-05-10T01:25:58.682Z,16.50
2019-05-10T01:26:58.647Z,15.10
2019-05-10T01:27:58.627Z,15.40
2019-05-10T01:28:58.605Z,13.60
2019-05-10T01:29:58.588Z,16.00
2019-05-10T01:30:58.567Z,16.90
2019-05-10T01:31:58.546Z,13.90
2019-05-10T01:32:58.528Z,16.40
2019-05-10T01:33:58.504Z,13.40
2019-05-10T01:34:58.490Z,16.40
2019-05-10T01:35:58.463Z,15.40
2019-05-10T01:36:58.442Z,14.80
2019-05-10T01:37:58.429Z,19.70
2019-05-10T01:38:58.404Z,15.50
2019-05-10T01:39:58.386Z,16.50
2019-05-10T01:40:58.388Z,18.80
2019-05-10T01:41:58.341Z,14.50
2019-05-10T01:42:58.319Z,16.60
2019-05-10T01:43:58.299Z,16.50
2019-05-10T01:44:58.279Z,15.80
2019-05-10T01:45:58.256Z,15.70
2019-05-10T01:46:58.239Z,10.20
2019-05-10T01:47:58.218Z,16.10
2019-05-10T01:48:58.195Z,11.50
2019-05-10T01:49:58.174Z,13.80
2019-05-10T01:50:58.154Z,12.60
2019-05-10T01:51:58.144Z,15.10
2019-05-10T01:52:58.170Z,14.20
2019-05-10T01:53:58.101Z,15.80
2019-05-10T01:54:58.071Z,14.00
2019-05-10T01:55:58.060Z,12.90
2019-05-10T01:56:58.030Z,14.40
2019-05-10T01:57:58.036Z,14.90
2019-05-10T01:58:57.989Z,16.30
2019-05-10T01:59:57.970Z,16.00
2019-05-10T02:00:57.946Z,13.40
2019-05-10T02:01:57.926Z,16.50
2019-05-10T02:02:57.926Z,13.30
2019-05-10T02:03:57.891Z,12.20
2019-05-10T02:04:57.865Z,12.90
2019-05-10T02:05:57.898Z,16.10
2019-05-10T02:06:57.822Z,14.80
2019-05-10T02:07:57.802Z,12.90
2019-05-10T02:08:57.784Z,15.30
2019-05-10T02:09:57.760Z,13.60
2019-05-10T02:10:57.752Z,17.90
2019-05-10T02:11:57.725Z,13.50
2019-05-10T02:12:57.698Z,14.30
2019-05-10T02:13:57.678Z,14.30
2019-05-10T02:14:57.656Z,14.70
2019-05-10T02:15:57.640Z,18.10
2019-05-10T02:16:57.615Z,15.90
2019-05-10T02:17:57.595Z,12.40
2019-05-10T02:18:57.573Z,13.50
2019-05-10T02:19:57.558Z,14.60
2019-05-10T02:20:57.545Z,12.10
2019-05-10T02:21:57.512Z,17.30
2019-05-10T02:22:57.490Z,13.10
2019-05-10T02:23:57.473Z,18.10
2019-05-10T02:24:57.469Z,15.60
2019-05-10T02:26:08.943Z,17.30
2019-05-10T02:26:57.424Z,14.90
2019-05-10T02:27:57.389Z,19.10
2019-05-10T02:28:57.372Z,19.80
2019-05-10T02:29:57.345Z,17.00
2019-05-10T02:30:57.326Z,16.80
2019-05-10T02:31:57.318Z,19.60
2019-05-10T02:32:57.285Z,18.20
2019-05-10T02:33:57.273Z,16.50
2019-05-10T02:34:57.251Z,18.90
2019-05-10T02:35:57.222Z,19.90
2019-05-10T02:36:57.205Z,21.10
2019-05-10T02:37:57.181Z,15.70
2019-05-10T02:38:57.161Z,20.40
2019-05-10T02:39:57.138Z,15.60
2019-05-10T02:40:57.122Z,18.20
2019-05-10T02:41:57.099Z,20.40
2019-05-10T02:42:57.077Z,17.40
2019-05-10T02:43:57.077Z,18.50
2019-05-10T02:44:57.036Z,22.90
2019-05-10T02:45:57.016Z,21.60
2019-05-10T02:46:56.994Z,20.40
2019-05-10T02:47:56.974Z,19.70
2019-05-10T02:48:56.952Z,19.10
2019-05-10T02:49:59.210Z,23.80
2019-05-10T02:50:56.913Z,24.00
2019-05-10T02:51:56.892Z,24.30
2019-05-10T02:52:56.871Z,20.50
2019-05-10T02:53:56.855Z,20.70
2019-05-10T02:54:56.843Z,24.20
2019-05-10T02:55:56.807Z,22.40
2019-05-10T02:56:56.787Z,28.40
2019-05-10T02:57:56.766Z,23.20
2019-05-10T02:58:56.750Z,21.50
2019-05-10T02:59:56.726Z,20.50
2019-05-10T03:00:56.702Z,21.60
2019-05-10T03:01:56.690Z,22.20
2019-05-10T03:02:56.814Z,26.50
2019-05-10T03:03:56.654Z,24.60
2019-05-10T03:04:56.755Z,25.60
2019-05-10T03:05:56.700Z,25.80
2019-05-10T03:06:56.576Z,24.20
2019-05-10T03:07:56.562Z,23.50
2019-05-10T03:08:56.536Z,26.80
2019-05-10T03:09:56.516Z,25.60
2019-05-10T03:10:56.494Z,26.70
2019-05-10T03:11:56.475Z,25.30
2019-05-10T03:12:56.461Z,27.00
2019-05-10T03:13:56.431Z,29.60
2019-05-10T03:14:56.425Z,24.40
2019-05-10T03:15:56.392Z,25.60
2019-05-10T03:16:56.368Z,30.00
2019-05-10T03:17:56.346Z,22.70
2019-05-10T03:18:56.328Z,23.00
2019-05-10T03:19:56.330Z,29.30
2019-05-10T03:20:56.285Z,25.10
2019-05-10T03:21:56.263Z,23.80
2019-05-10T03:22:56.244Z,26.30
2019-05-10T03:23:56.250Z,26.40
2019-05-10T03:24:56.202Z,25.30
2019-05-10T03:25:56.194Z,28.10
2019-05-10T03:26:56.165Z,25.60
2019-05-10T03:27:56.149Z,23.70
2019-05-10T03:28:56.116Z,27.80
2019-05-10T03:29:56.107Z,27.60
2019-05-10T03:30:56.076Z,27.40
2019-05-10T03:31:56.056Z,22.90
2019-05-10T03:32:56.035Z,26.70
2019-05-10T03:33:57.729Z,28.60
2019-05-10T03:34:55.992Z,22.90
2019-05-10T03:35:56.001Z,25.70
2019-05-10T03:36:55.949Z,23.30
2019-05-10T03:37:55.929Z,26.60
2019-05-10T03:38:55.915Z,25.80
2019-05-10T03:39:55.895Z,25.40
2019-05-10T03:40:55.865Z,26.00
2019-05-10T03:41:55.844Z,26.20
2019-05-10T03:42:55.822Z,28.10
2019-05-10T03:43:55.808Z,27.70
2019-05-10T03:44:55.793Z,23.60
2019-05-10T03:45:55.764Z,23.30
2019-05-10T03:46:55.738Z,23.80
2019-05-10T03:47:55.718Z,23.80
2019-05-10T03:48:55.696Z,23.60
2019-05-10T03:49:55.673Z,25.50
2019-05-10T03:50:55.657Z,24.90
2019-05-10T03:51:55.632Z,27.60
2019-05-10T03:52:55.622Z,20.50
2019-05-10T03:53:55.591Z,25.70
2019-05-10T03:54:55.695Z,24.80
2019-05-10T03:55:55.554Z,22.60
2019-05-10T03:57:12.338Z,26.60
2019-05-10T03:57:55.580Z,22.20
2019-05-10T03:58:55.486Z,21.20
2019-05-10T03:59:55.467Z,23.00
2019-05-10T04:00:55.446Z,27.50
2019-05-10T04:01:55.421Z,21.40
2019-05-10T04:02:55.402Z,26.10
2019-05-10T04:03:55.380Z,25.10
2019-05-10T04:04:55.366Z,24.60
2019-05-10T04:05:55.341Z,26.50
2019-05-10T04:06:55.317Z,24.50
2019-05-10T04:07:55.309Z,25.40
2019-05-10T04:08:55.277Z,23.80
2019-05-10T04:09:55.260Z,25.60
2019-05-10T04:10:55.236Z,26.90
2019-05-10T04:11:55.296Z,22.50
2019-05-10T04:12:55.191Z,27.70
2019-05-10T04:13:55.175Z,28.80
2019-05-10T04:14:55.149Z,32.10
2019-05-10T04:15:55.128Z,24.80
2019-05-10T04:16:55.110Z,28.70
2019-05-10T04:17:55.085Z,28.30
2019-05-10T04:18:55.063Z,22.70
2019-05-10T04:19:55.055Z,24.00
2019-05-10T04:20:55.020Z,23.10
2019-05-10T04:21:55.003Z,26.90
2019-05-10T04:22:54.979Z,25.10
2019-05-10T04:23:54.959Z,24.90
2019-05-10T04:24:54.938Z,25.00
2019-05-10T04:25:54.917Z,24.00
2019-05-10T04:26:54.900Z,22.20
2019-05-10T04:27:54.874Z,23.70
2019-05-10T04:28:54.869Z,24.70
2019-05-10T04:29:54.839Z,24.70
2019-05-10T04:30:54.812Z,26.90
2019-05-10T04:31:54.790Z,27.20
2019-05-10T04:32:54.774Z,26.40
2019-05-10T04:33:54.748Z,26.50
2019-05-10T04:34:54.825Z,25.80
2019-05-10T04:35:54.714Z,27.40
2019-05-10T04:36:54.683Z,23.30
2019-05-10T04:37:54.676Z,22.30
2019-05-10T04:38:54.652Z,26.90
2019-05-10T04:39:54.634Z,22.40
2019-05-10T04:40:54.600Z,28.10
2019-05-10T04:41:54.579Z,24.10
2019-05-10T04:42:54.557Z,24.90
2019-05-10T04:43:54.538Z,24.90
2019-05-10T04:44:54.516Z,26.20
2019-05-10T04:45:54.494Z,28.10
2019-05-10T04:46:54.475Z,24.90
2019-05-10T04:47:54.452Z,26.60
2019-05-10T04:48:54.433Z,24.10
2019-05-10T04:49:54.412Z,28.90
2019-05-10T04:50:54.407Z,25.10
2019-05-10T04:51:54.376Z,26.60
2019-05-10T04:52:54.346Z,24.00
2019-05-10T04:53:54.327Z,25.30
2019-05-10T04:54:54.305Z,26.20
2019-05-10T04:55:54.284Z,27.20
2019-05-10T04:56:54.272Z,25.00
2019-05-10T04:57:54.243Z,25.70
2019-05-10T04:58:54.230Z,23.10
2019-05-10T04:59:54.201Z,25.10
2019-05-10T05:00:54.182Z,27.40
2019-05-10T05:01:54.162Z,27.50
2019-05-10T05:02:54.139Z,24.00
2019-05-10T05:03:54.118Z,24.50
2019-05-10T05:04:54.096Z,25.80
2019-05-10T05:05:54.074Z,25.80
2019-05-10T05:06:54.054Z,29.00
2019-05-10T05:07:54.031Z,29.00
2019-05-10T05:08:54.226Z,25.80
2019-05-10T05:09:53.998Z,28.00
2019-05-10T05:10:53.979Z,25.60
2019-05-10T05:11:53.950Z,26.90
2019-05-10T05:12:53.970Z,28.60
2019-05-10T05:13:53.906Z,28.50
2019-05-10T05:14:53.887Z,27.40
2019-05-10T05:15:53.874Z,26.40
2019-05-10T05:16:53.848Z,26.40
2019-05-10T05:17:53.830Z,25.30
2019-05-10T05:18:53.810Z,27.20
2019-05-10T05:19:53.781Z,24.80
2019-05-10T05:20:53.766Z,24.70
2019-05-10T05:21:53.740Z,26.90
2019-05-10T05:22:53.718Z,31.20
2019-05-10T05:23:53.697Z,27.90
2019-05-10T05:24:55.178Z,24.20
2019-05-10T05:25:53.656Z,26.00
2019-05-10T05:26:53.644Z,25.80
2019-05-10T05:28:06.759Z,28.00
2019-05-10T05:28:53.592Z,27.10
2019-05-10T05:29:53.580Z,24.60
2019-05-10T05:30:53.556Z,23.40
2019-05-10T05:32:00.180Z,21.50
2019-05-10T05:32:56.753Z,23.20
2019-05-10T05:33:53.494Z,23.20
2019-05-10T05:34:53.467Z,23.10
2019-05-10T05:35:53.446Z,25.60
2019-05-10T05:36:53.425Z,23.90
2019-05-10T05:37:53.411Z,26.00
2019-05-10T05:38:53.383Z,23.20
2019-05-10T05:39:53.370Z,21.50
2019-05-10T05:40:53.340Z,27.30
2019-05-10T05:41:56.698Z,25.80
2019-05-10T05:42:53.298Z,22.30
2019-05-10T05:43:53.279Z,27.40
2019-05-10T05:44:53.308Z,29.10
2019-05-10T05:45:53.236Z,25.10
2019-05-10T05:46:53.218Z,26.00
2019-05-10T05:47:53.194Z,24.40
2019-05-10T05:48:53.172Z,25.20
2019-05-10T05:49:53.153Z,23.70
2019-05-10T05:50:53.140Z,26.80
2019-05-10T05:51:53.121Z,26.60
2019-05-10T05:52:53.106Z,26.40
2019-05-10T05:53:53.102Z,21.30
2019-05-10T05:54:57.625Z,22.90
2019-05-10T05:55:53.027Z,23.70
2019-05-10T05:56:53.322Z,23.30
2019-05-10T05:57:52.985Z,24.10
2019-05-10T05:58:52.964Z,23.70
2019-05-10T05:59:57.463Z,25.40
2019-05-10T06:00:52.943Z,28.40
2019-05-10T06:01:52.903Z,25.50
2019-05-10T06:02:52.883Z,23.70
2019-05-10T06:03:52.862Z,22.60
2019-05-10T06:04:52.840Z,23.00
2019-05-10T06:05:52.818Z,24.00
2019-05-10T06:06:53.834Z,23.20
2019-05-10T06:07:52.984Z,22.80
2019-05-10T06:08:54.613Z,25.00
2019-05-10T06:09:52.735Z,22.10
2019-05-10T06:10:57.593Z,21.80
2019-05-10T06:11:52.696Z,21.30
2019-05-10T06:12:53.022Z,24.30
2019-05-10T06:13:52.651Z,21.80
2019-05-10T06:14:52.638Z,20.60
2019-05-10T06:15:52.614Z,23.10
2019-05-10T06:16:53.116Z,20.40
2019-05-10T06:17:57.069Z,21.50
2019-05-10T06:18:52.558Z,19.30
2019-05-10T06:19:52.530Z,19.20
2019-05-10T06:20:52.507Z,22.40
2019-05-10T06:21:58.007Z,19.90
2019-05-10T06:23:06.048Z,20.40
2019-05-10T06:23:52.448Z,20.30
2019-05-10T06:24:53.899Z,19.10
2019-05-10T06:25:52.408Z,17.20
2019-05-10T06:26:52.389Z,18.30
2019-05-10T06:27:52.373Z,15.60
2019-05-10T06:28:59.539Z,19.10
2019-05-10T06:29:52.333Z,19.30
2019-05-10T06:30:52.305Z,20.50
2019-05-10T06:31:52.293Z,17.00
2019-05-10T06:32:53.224Z,18.30
2019-05-10T06:33:52.243Z,16.40
2019-05-10T06:34:52.222Z,16.40
2019-05-10T06:35:52.202Z,20.90
2019-05-10T06:36:52.180Z,15.90
2019-05-10T06:37:52.161Z,19.30
2019-05-10T06:38:52.141Z,16.60
2019-05-10T06:39:52.123Z,16.40
2019-05-10T06:40:52.104Z,15.70
2019-05-10T06:41:55.945Z,16.50
2019-05-10T06:42:52.060Z,17.90
2019-05-10T06:43:53.332Z,18.80
2019-05-10T06:44:52.018Z,15.10
2019-05-10T06:45:53.817Z,16.50
2019-05-10T06:46:51.986Z,16.10
2019-05-10T06:47:53.488Z,16.10
2019-05-10T06:48:51.939Z,18.80
2019-05-10T06:49:52.398Z,17.90
2019-05-10T06:50:51.899Z,81.50
2019-05-10T06:51:51.884Z,28.60
2019-05-10T06:52:52.335Z,14.50
2019-05-10T06:53:53.759Z,13.90
2019-05-10T06:54:51.821Z,14.00
2019-05-10T06:55:51.817Z,16.40
2019-05-10T06:56:51.782Z,16.00
2019-05-10T06:57:59.321Z,15.40
2019-05-10T06:58:51.736Z,14.20
2019-05-10T06:59:56.483Z,15.30
2019-05-10T07:00:51.703Z,13.80
2019-05-10T07:01:52.288Z,12.00
2019-05-10T07:02:51.658Z,15.20
2019-05-10T07:03:51.673Z,14.90
2019-05-10T07:04:51.616Z,19.20
2019-05-10T07:05:51.597Z,15.40
2019-05-10T07:06:51.580Z,11.90
2019-05-10T07:07:51.556Z,17.90
2019-05-10T07:08:57.648Z,11.80
2019-05-10T07:10:15.726Z,12.80
2019-05-10T07:10:51.507Z,12.80
2019-05-10T07:11:51.490Z,14.00
2019-05-10T07:12:57.285Z,10.10
2019-05-10T07:13:53.107Z,9.10
2019-05-10T07:14:51.422Z,13.20
2019-05-10T07:15:51.405Z,9.20
2019-05-10T07:16:51.385Z,10.40
2019-05-10T07:17:51.942Z,8.70
2019-05-10T07:18:54.728Z,9.50
2019-05-10T07:19:54.868Z,10.90
2019-05-10T07:20:53.934Z,11.30
2019-05-10T07:21:51.378Z,9.50
2019-05-10T07:22:51.281Z,9.30
2019-05-10T07:23:51.262Z,11.10
2019-05-10T07:24:51.248Z,12.10
2019-05-10T07:25:51.228Z,8.70
2019-05-10T07:26:51.205Z,9.30
2019-05-10T07:27:51.186Z,9.90
2019-05-10T07:28:51.876Z,11.10
2019-05-10T07:29:51.170Z,10.70
2019-05-10T07:30:51.134Z,8.70
2019-05-10T07:31:51.131Z,9.80
2019-05-10T07:32:54.622Z,10.00
2019-05-10T07:33:51.096Z,8.20
2019-05-10T07:34:58.822Z,7.30
2019-05-10T07:35:51.042Z,7.40
2019-05-10T07:36:51.029Z,6.20
2019-05-10T07:37:51.747Z,7.70
2019-05-10T07:38:50.991Z,10.00
2019-05-10T07:39:50.990Z,8.90
2019-05-10T07:40:50.962Z,8.50
2019-05-10T07:41:50.939Z,11.90
2019-05-10T07:42:50.924Z,9.60
2019-05-10T07:43:50.927Z,9.90
2019-05-10T07:44:50.919Z,9.50
2019-05-10T07:45:50.883Z,9.10
2019-05-10T07:46:54.351Z,9.60
2019-05-10T07:47:50.834Z,11.30
2019-05-10T07:48:53.794Z,9.30
2019-05-10T07:49:50.802Z,11.30
2019-05-10T07:50:52.009Z,10.00
2019-05-10T07:51:50.767Z,9.80
2019-05-10T07:52:50.759Z,9.70
2019-05-10T07:53:50.735Z,9.70
2019-05-10T07:54:50.725Z,8.60
2019-05-10T07:55:50.709Z,7.60
2019-05-10T07:56:50.692Z,7.40
2019-05-10T07:57:50.668Z,8.50
2019-05-10T07:58:50.651Z,6.80
2019-05-10T07:59:51.400Z,8.10
2019-05-10T08:00:50.624Z,8.00
2019-05-10T08:01:50.602Z,10.10
2019-05-10T08:02:57.765Z,7.30
2019-05-10T08:03:52.459Z,8.50
2019-05-10T08:04:53.425Z,8.70
2019-05-10T08:05:55.149Z,12.40
2019-05-10T08:06:52.055Z,7.10
2019-05-10T08:07:50.504Z,9.20
2019-05-10T08:08:55.309Z,11.20
2019-05-10T08:09:50.462Z,11.80
2019-05-10T08:10:50.446Z,9.70
2019-05-10T08:11:54.222Z,7.50
2019-05-10T08:12:50.421Z,8.40
2019-05-10T08:13:50.406Z,7.20
2019-05-10T08:14:53.533Z,8.90
2019-05-10T08:15:50.372Z,6.70
2019-05-10T08:16:58.616Z,7.80
2019-05-10T08:17:50.984Z,7.60
2019-05-10T08:18:50.314Z,8.00
2019-05-10T08:19:50.298Z,10.20
2019-05-10T08:20:55.129Z,7.20
2019-05-10T08:21:55.298Z,7.30
2019-05-10T08:22:52.403Z,11.20
2019-05-10T08:23:52.168Z,7.70
2019-05-10T08:24:52.741Z,5.80
2019-05-10T08:25:50.183Z,6.70
2019-05-10T08:26:55.566Z,6.90
2019-05-10T08:27:54.988Z,9.00
2019-05-10T08:28:52.359Z,7.30
2019-05-10T08:29:52.950Z,7.90
2019-05-10T08:30:53.688Z,9.20
2019-05-10T08:31:53.686Z,8.70
2019-05-10T08:32:52.439Z,8.40
2019-05-10T08:33:56.336Z,7.40
2019-05-10T08:34:53.105Z,7.60
2019-05-10T08:35:52.464Z,8.90
2019-05-10T08:36:51.969Z,6.80
2019-05-10T08:37:49.969Z,7.20
2019-05-10T08:39:03.119Z,7.20
2019-05-10T08:39:55.610Z,5.80
2019-05-10T08:40:52.069Z,5.70
2019-05-10T08:42:01.331Z,8.00
2019-05-10T08:43:01.472Z,7.40
2019-05-10T08:43:52.404Z,8.20
2019-05-10T08:44:54.175Z,6.20
2019-05-10T08:45:52.339Z,7.50
2019-05-10T08:46:49.806Z,11.40
2019-05-10T08:47:52.653Z,6.70
2019-05-10T08:48:53.104Z,8.20
2019-05-10T08:50:06.491Z,8.80
2019-05-10T08:50:56.906Z,7.90
2019-05-10T08:51:52.073Z,9.20
2019-05-10T08:52:49.688Z,8.20
2019-05-10T08:53:55.875Z,7.20
2019-05-10T08:54:49.654Z,5.90
2019-05-10T08:55:52.289Z,7.80
2019-05-10T08:56:53.067Z,7.50
2019-05-10T08:57:49.589Z,8.20
2019-05-10T08:58:49.573Z,9.10
2019-05-10T08:59:54.168Z,7.00
2019-05-10T09:00:54.655Z,7.60
2019-05-10T09:01:50.803Z,7.70
2019-05-10T09:02:51.438Z,7.50
2019-05-10T09:03:55.619Z,7.60
2019-05-10T09:04:50.411Z,11.00
2019-05-10T09:05:49.453Z,9.30
2019-05-10T09:06:55.347Z,7.50
2019-05-10T09:07:51.909Z,6.90
2019-05-10T09:08:52.991Z,6.80
2019-05-10T09:09:50.112Z,9.40
2019-05-10T09:10:49.349Z,5.90
2019-05-10T09:11:49.335Z,4.20
2019-05-10T09:12:53.745Z,7.40
2019-05-10T09:13:49.296Z,9.40
2019-05-10T09:14:57.498Z,6.10
2019-05-10T09:15:54.355Z,7.20
2019-05-10T09:16:59.700Z,8.90
2019-05-10T09:17:49.223Z,9.90
2019-05-10T09:18:51.152Z,5.40
2019-05-10T09:19:49.197Z,6.90
2019-05-10T09:20:51.469Z,13.00
2019-05-10T09:21:51.946Z,10.70
2019-05-10T09:22:49.153Z,11.80
2019-05-10T09:23:53.024Z,8.40
2019-05-10T09:24:50.001Z,7.30
2019-05-10T09:25:49.086Z,6.40
2019-05-10T09:26:52.789Z,3.80
2019-05-10T09:27:49.044Z,5.10
2019-05-10T09:28:53.461Z,7.10
2019-05-10T09:29:49.008Z,5.00
2019-05-10T09:30:59.396Z,6.50
2019-05-10T09:31:51.198Z,9.80
2019-05-10T09:32:48.952Z,12.10
2019-05-10T09:33:51.211Z,10.90
2019-05-10T09:34:48.919Z,7.20
2019-05-10T09:35:52.376Z,8.10
2019-05-10T09:36:48.886Z,10.20
2019-05-10T09:37:53.921Z,4.40
2019-05-10T09:38:48.848Z,5.10
2019-05-10T09:39:55.405Z,5.10
2019-05-10T09:40:52.935Z,8.50
2019-05-10T09:41:48.796Z,6.90
2019-05-10T09:42:48.826Z,4.30
2019-05-10T09:43:50.617Z,5.70
2019-05-10T09:44:48.744Z,5.30
2019-05-10T09:45:48.732Z,6.60
2019-05-10T09:46:48.710Z,4.10
2019-05-10T09:47:48.701Z,4.80
2019-05-10T09:48:54.484Z,7.10
2019-05-10T09:49:56.421Z,8.10
2019-05-10T09:50:48.647Z,10.40
2019-05-10T09:51:48.624Z,8.50
2019-05-10T09:52:48.615Z,8.20
2019-05-10T09:53:48.753Z,5.50
2019-05-10T09:54:49.545Z,5.30
2019-05-10T09:55:55.316Z,7.00
2019-05-10T09:56:51.977Z,8.90
2019-05-10T09:57:48.533Z,10.20
2019-05-10T09:58:48.662Z,6.90
2019-05-10T09:59:48.489Z,5.70
2019-05-10T10:00:48.688Z,7.60
2019-05-10T10:01:48.552Z,5.20
2019-05-10T10:02:56.092Z,8.40
2019-05-10T10:03:48.430Z,6.00
2019-05-10T10:04:48.406Z,8.80
2019-05-10T10:05:48.510Z,4.90
2019-05-10T10:06:52.702Z,5.80
2019-05-10T10:07:48.355Z,8.30
2019-05-10T10:08:51.918Z,13.30
2019-05-10T10:09:48.343Z,7.70
2019-05-10T10:10:48.306Z,10.40
2019-05-10T10:11:58.088Z,7.20
2019-05-10T10:12:48.275Z,6.60
2019-05-10T10:13:58.581Z,9.50
2019-05-10T10:14:48.237Z,6.90
2019-05-10T10:15:52.130Z,7.60
2019-05-10T10:16:57.898Z,10.70
2019-05-10T10:17:48.195Z,7.10
2019-05-10T10:18:48.181Z,8.50
2019-05-10T10:19:48.234Z,8.10
2019-05-10T10:20:48.268Z,6.60
2019-05-10T10:21:48.119Z,8.10
2019-05-10T10:22:52.603Z,8.00
2019-05-10T10:23:48.091Z,5.90
2019-05-10T10:24:49.219Z,9.40
2019-05-10T10:25:48.503Z,6.20
2019-05-10T10:26:48.292Z,8.40
2019-05-10T10:27:48.185Z,7.30
2019-05-10T10:28:49.760Z,10.10
2019-05-10T10:29:47.994Z,8.00
2019-05-10T10:30:50.330Z,11.70
2019-05-10T10:31:55.277Z,7.90
2019-05-10T10:32:47.929Z,7.30
2019-05-10T10:33:56.927Z,12.10
2019-05-10T10:34:52.513Z,9.50
2019-05-10T10:35:48.251Z,6.60
2019-05-10T10:36:47.859Z,9.30
2019-05-10T10:37:47.854Z,6.00
2019-05-10T10:38:49.646Z,7.90
2019-05-10T10:39:47.848Z,10.60
2019-05-10T10:40:47.793Z,7.90
2019-05-10T10:41:49.173Z,9.70
2019-05-10T10:42:47.766Z,7.90
2019-05-10T10:43:48.577Z,8.10
2019-05-10T10:44:48.374Z,9.30
2019-05-10T10:45:47.705Z,6.80
2019-05-10T10:46:48.121Z,9.30
2019-05-10T10:47:47.670Z,7.40
2019-05-10T10:48:49.284Z,8.70
2019-05-10T10:49:47.640Z,8.60
2019-05-10T10:50:53.860Z,7.10
2019-05-10T10:51:47.602Z,7.60
2019-05-10T10:52:47.589Z,8.60
2019-05-10T10:53:47.565Z,7.90
2019-05-10T10:54:48.045Z,8.40
2019-05-10T10:55:54.170Z,5.90
2019-05-10T10:56:48.266Z,8.60
2019-05-10T10:57:48.152Z,6.80
2019-05-10T10:58:49.911Z,8.60
2019-05-10T10:59:47.596Z,8.00
2019-05-10T11:00:48.132Z,7.20
2019-05-10T11:01:56.637Z,8.10
2019-05-10T11:02:51.914Z,10.60
2019-05-10T11:03:49.058Z,8.30
2019-05-10T11:04:48.986Z,10.20
2019-05-10T11:05:47.362Z,9.40
2019-05-10T11:06:47.345Z,9.50
2019-05-10T11:07:47.993Z,8.00
2019-05-10T11:08:47.315Z,8.40
2019-05-10T11:09:47.292Z,8.30
2019-05-10T11:10:47.276Z,8.20
2019-05-10T11:11:47.276Z,9.80
2019-05-10T11:12:47.249Z,9.40
2019-05-10T11:13:57.948Z,8.90
2019-05-10T11:14:47.391Z,11.70
2019-05-10T11:15:47.199Z,11.20
2019-05-10T11:16:52.824Z,12.30
2019-05-10T11:17:47.167Z,7.70
2019-05-10T11:18:47.141Z,8.30
2019-05-10T11:19:47.122Z,8.80
2019-05-10T11:20:49.367Z,9.80
2019-05-10T11:21:47.091Z,9.00
2019-05-10T11:22:49.752Z,7.80
2019-05-10T11:23:47.064Z,11.80
2019-05-10T11:24:51.762Z,14.90
2019-05-10T11:25:54.346Z,9.20
2019-05-10T11:26:47.004Z,10.40
2019-05-10T11:27:47.571Z,9.00
2019-05-10T11:28:46.972Z,8.80
2019-05-10T11:29:46.965Z,7.80
2019-05-10T11:30:46.942Z,8.60
2019-05-10T11:31:53.516Z,7.10
2019-05-10T11:32:46.905Z,7.40
2019-05-10T11:33:52.274Z,7.50
2019-05-10T11:34:46.872Z,7.60
2019-05-10T11:35:46.856Z,10.40
2019-05-10T11:36:48.288Z,9.30
2019-05-10T11:37:46.827Z,9.00
2019-05-10T11:38:51.967Z,8.70
2019-05-10T11:39:47.173Z,9.10
2019-05-10T11:40:46.774Z,6.20
2019-05-10T11:41:53.044Z,5.40
2019-05-10T11:42:47.570Z,7.30
2019-05-10T11:43:46.723Z,6.10
2019-05-10T11:44:50.092Z,8.50
2019-05-10T11:45:46.700Z,7.60
2019-05-10T11:46:46.681Z,4.60
2019-05-10T11:47:47.992Z,8.00
2019-05-10T11:48:46.656Z,8.10
2019-05-10T11:49:46.630Z,9.00
2019-05-10T11:50:46.604Z,8.30
2019-05-10T11:51:47.957Z,10.80
2019-05-10T11:52:46.569Z,8.20
2019-05-10T11:53:48.962Z,8.10
2019-05-10T11:54:46.544Z,6.90
2019-05-10T11:55:46.528Z,5.80
2019-05-10T11:56:46.510Z,7.80
2019-05-10T11:58:00.818Z,9.00
2019-05-10T11:58:53.098Z,6.80
2019-05-10T11:59:46.460Z,5.00
2019-05-10T12:00:46.436Z,8.70
2019-05-10T12:01:57.263Z,7.90
2019-05-10T12:03:46.394Z,7.20
2019-05-10T12:04:46.409Z,8.60
2019-05-10T12:05:56.482Z,7.90
2019-05-10T12:06:50.026Z,9.20
2019-05-10T12:07:46.327Z,8.30
2019-05-10T12:08:46.303Z,8.10
2019-05-10T12:09:53.329Z,6.80
2019-05-10T12:10:52.643Z,7.80
2019-05-10T12:11:51.859Z,7.20
2019-05-10T12:13:01.672Z,7.80
2019-05-10T12:13:46.221Z,5.70
2019-05-10T12:14:46.669Z,5.30
2019-05-10T12:15:46.203Z,7.60
2019-05-10T12:16:46.273Z,7.50
2019-05-10T12:17:47.642Z,10.20
2019-05-10T12:19:01.222Z,8.80
2019-05-10T12:19:50.575Z,8.10
2019-05-10T12:20:55.652Z,7.50
2019-05-10T12:21:46.089Z,10.60
2019-05-10T12:23:51.033Z,6.70
2019-05-10T12:26:05.558Z,7.80
2019-05-10T12:26:13.562Z,7.20
2019-05-10T12:26:19.490Z,5.60
2019-05-10T12:26:36.094Z,9.80
2019-05-10T12:27:22.594Z,6.60
2019-05-10T12:27:49.173Z,7.90
2019-05-10T12:28:45.989Z,7.30
2019-05-10T12:29:46.579Z,7.20
2019-05-10T12:30:45.961Z,7.60
2019-05-10T12:31:47.402Z,6.50
2019-05-10T12:32:55.665Z,7.90
2019-05-10T12:33:45.912Z,5.20
2019-05-10T12:34:50.507Z,6.40
2019-05-10T12:35:47.304Z,6.90
2019-05-10T12:36:45.857Z,7.60
2019-05-10T12:37:53.026Z,6.10
2019-05-10T12:38:45.826Z,6.60
2019-05-10T12:39:45.809Z,7.90
2019-05-10T12:40:46.039Z,7.40
2019-05-10T12:41:49.657Z,7.80
2019-05-10T12:42:47.107Z,7.10
2019-05-10T12:43:48.362Z,8.60
2019-05-10T12:44:47.999Z,5.70
2019-05-10T12:45:45.727Z,7.50
2019-05-10T12:46:45.699Z,6.60
2019-05-10T12:47:45.683Z,8.60
2019-05-10T12:48:45.676Z,9.60
2019-05-10T12:49:45.648Z,7.20
2019-05-10T12:50:45.633Z,8.30
2019-05-10T12:51:45.619Z,9.00
2019-05-10T12:52:50.359Z,9.20
2019-05-10T12:53:49.279Z,6.60
2019-05-10T12:54:45.571Z,6.00
2019-05-10T12:55:45.558Z,7.30
2019-05-10T12:56:46.229Z,10.90
2019-05-10T12:57:45.535Z,8.70
2019-05-10T12:58:45.507Z,8.10
2019-05-10T12:59:45.489Z,7.20
2019-05-10T13:00:46.363Z,5.70
2019-05-10T13:01:45.463Z,8.20